AddedLatest Added eBooks:

  1. 2016-12-02TTC The World Was Never the Same Events That Changed History
  2. 2016-12-02Go with Me 2015 LiMiTED 1080p BluRay x264-VETO
  3. 2016-12-02AVPro Movie Capture 2.72
  4. 2016-12-02Heavysaurs The Movie 2015 1080p BluRay x264-FiCO
  5. 2016-12-02Action Cut Film School - Filmmaking DVD Set [3 DVD - 3 AVI, 3 PDF]
  6. 2016-12-02Kickboxer.Vengeance.2016.1080p.BluRay.x264-ROVERS
  7. 2016-12-02Russel Brunson - DotComSecrets Ignite Workshop
  8. 2016-12-02Little Fish Strange Pond 2009 1080p BluRay x264-BRMP
  9. 2016-12-02Mr Church 2016 720p BluRay x264 DTS-iFT
  10. 2016-12-02Bridget Joness Baby 2016 720p BRRip XviD AC3-RARBG
  11. 2016-12-02Petes Dragon 2016 1080p BluRay DTS x264-ETRG
  12. 2016-12-02Gerry Crammer and Rob Jones Overnight Super Affiliate - Removed
  13. 2016-12-02Steve Byrne The Byrne Identity 2010 1080p BluRay x264-aAF
  14. 2016-12-02Windows 8 AIO 18 in 1 x64 Pre-Activated Sept2013 by Murphy78
  15. 2016-12-02Reiki Certification Natalie Berthold
  16. 2016-12-02Udemy - Homemade Skincare: Ultimate Care for Anti Aging & Dry Skin
  17. 2016-12-02Udemy - The Complete Cyber Security Course: Hacking Exposed
  18. 2016-12-02Udemy Blues Guitar for Beginners
  19. 2016-12-02Suicide Squad 2016 1080p 3D BluRay Half-OU x264 DTS-JYK
  20. 2016-12-02Steve G Jones Ericksonian Hypnosis
  21. 2016-12-02Suicide Squad 2016 EXTENDED 1080p BluRay x264 DTS-ETRG
  22. 2016-12-02Deploing QOS for cisco IP and next generation networks
  23. 2016-12-02The Legend of Tarzan 2016 BluRay 720p DTS AC3 x264-ETRG
  24. 2016-12-02The Perfect Weapon 2016 MULTi 1080p BluRay x264-ULSHD
  25. 2016-12-02The Search For Santa Paws 2010 1080p BluRay x264-aAF
  26. 2016-12-02The Secret Life of Pets 2016 1080p BluRay x264 DTS-HD MA 7.1-FGT
  27. 2016-12-02What We Become (2015) 1080p BluRay x264-BiPOLAR
  28. 2016-12-02George W. Burns - 101 Healing Stories for Kids and Teens: Using Metaphors in Therapy (2004)
  29. 2016-12-02Top Gear From A-Z 2015 Part 1 720p BluRay x264-TAXES
  30. 2016-12-02TuneUp Utilities 2014 v14 0.1000 90 with Patch-KaranPc
  31. 2016-12-02KMSmicro v5.0.0 By Ratiborus Support activation of Windows 8.1
  32. 2016-12-02The Walking Dead S07E06 720p HDTV DDP5 1 x264-NTb
  33. 2016-12-02Adam Eason The Science of Self-Hypnosis
  34. 2016-12-02Next Limit Realflow 10.0.0.0135 Win64/Mac
  35. 2016-12-02Gary Chartrand - A First Course in Graph Theory (2012) [1 ebook (epub)]
  36. 2016-12-02TL-0day NOV20-2013
  37. 2016-12-02The Joy of Science The Great Courses
  38. 2016-12-02Gerry Crammer and Rob Jones Overnight Super Affiliate - Removed
  39. 2016-12-02Understanding Greek and Roman Technology: From Catapult to the Pantheon
  40. 2016-12-02Suicide.Squad.2016.3D.1080p.BluRay.x264-PSYCHD
  41. 2016-12-02Bridget.Joness.Baby.2016.1080p.BluRay.x264-SPARKS - Removed
  42. 2016-12-02GRAFster v7.0.6.2-PH
  43. 2016-12-02Slayaway Camp-DARKSiDERS
  44. 2016-12-02Rogue Wizards v1.0.293-DARKSiDERS
  45. 2016-12-02Tempest v1.0.5-DARKSiDERS
  46. 2016-12-02Equity.2016.LIMITED.1080p.BluRay.x264-DRONES
  47. 2016-12-02Dog Sled Saga v1.0.3-DARKSiDERS
  48. 2016-12-02Wonders of the National Parks A Geology of North America The Great Courses
  49. 2016-12-02Attack of the Lederhosen Zombies 2016 1080p BluRay x264-BiPOLAR
  50. 2016-12-02MTI Film Cortex Enterprise v3.0.3 Incl. Keymaker WIN
  51. 2016-12-02TTC Passions Philosophy And The Intelligence Of Emotions 2008
  52. 2016-12-02Ben-Hur 2016 720p BluRay Plex Optimized PapaFatHead
  53. 2016-12-02Video2brain Camtasia 8 Création d'un Teaser de Présentation [FRENCH]
  54. 2016-12-02Ghostbusters.2016.THEATRICAL.720p.BluRay.x264-FLAME
  55. 2016-12-02MTI Film DRS Nova v2.0.0 Incl. Keymaker WIN []
  56. 2016-12-02Ice Age Collision Course 2016 BluRay 720p DTS AC3 x264-ETRG
  57. 2016-12-02Grounded- Making Of The Last Of Us- Docu 720p HDRip x264 AC3-FooKaS
  58. 2016-12-02Izzies Way Home 3D 2016 1080p BluRay x264-UNVEiL
  59. 2016-12-02Clinical Psychology
  60. 2016-12-02Just In Time for Christmas 2015 1080p WEB-DL DD5.1 H264-FGT
  61. 2016-12-02TTC - Prof David W Martin - Psychology of Human Behavior
  62. 2016-12-02Kung Fu Panda 3 2016 BluRay 720p DTS AC3 x264-ETRG
  63. 2016-12-02Brian Tracys 21 Secrets to Success
  64. 2016-12-02Nayagi 2016 1080p WEB-HD AVC DD5 1-TeamTMR
  65. 2016-12-02Lynda Gmail Essential Training
  66. 2016-12-02Operator 2016 HDRip XviD AC3-EVO
  67. 2016-12-02Ouija Origin of Evil 2016 HC HDRip XviD AC3-EVO
  68. 2016-12-02Udemy From 0 To 1 SQL And Databases Heavy Lifting
  69. 2016-12-02Sausage Party 2016 1080p BluRay DTS x264-ETRG
  70. 2016-12-02Diskeeper Pro 13.0.835 Inc Patch-BetaMaster
  71. 2016-12-0210 Years 2011 1080p BluRay H264 AAC-RARBG
  72. 2016-12-02Street 2015 1080p BluRay x264 DTS-FGT
  73. 2016-12-02Suicide Squad 2016 720p BluRay X264 AC3 Plex Optimized PapaFatHead
  74. 2016-12-02Igor Ledochowski - Hypnotic Inductions Revealed
  75. 2016-12-02BBC The Sky at Night - Life on Mars (2016) 720p 1080p HDTV x264-MVGroup
  76. 2016-12-02Udemy - Healthy Slim Fasting Diet System
  77. 2016-12-02Suicide Squad 2016 Extended 1080p Bluray x265 HEVC 10bit AAC 7.1 Tigole
  78. 2016-12-02Suicide Squad 2016 EXTENDED 720p BluRay x264 DD5.1-HDChina
  79. 2016-12-02The Guard 2011 PROPER 720p BluRay x264-SADPANDA
  80. 2016-12-02[r3q] Steve Lewis and Chris Uhlmann Harry Dunkley series Complete (epub mobi)
  81. 2016-12-02The.Hollow.2016.720p.BluRay.x264-THUGLiNE
  82. 2016-12-02The.Perfect.Weapon.2016.1080p.BluRay.x264.DTS-ULSHD
  83. 2016-12-02War Dogs (2016) 720p BluRay DTS x264-HiDt
  84. 2016-12-02Dusan Djukich - Straight-Line Leadership: Tools for Living with Velocity and Power in Turbulent Times
  85. 2016-12-02X-Men Apocalypse 2016 BluRay 720p DTS AC3 x264-ETRG
  86. 2016-12-02Apple Final Cut Pro X 10.3.1 MacOSX
  87. 2016-12-02Cadence Encounter Test 15.12.000
  88. 2016-12-02Solid Angle Cinema4D To Arnold v1.5.0 For Cinema4D R16/R17/R18 (Win/Mac)
  89. 2016-12-02Windows 7 SP1 11in1 x86/x64 KottoSOFT v.57.16 FiraDisk
  90. 2016-12-023D graphics wallpaper collection Part 56
  91. 2016-12-023D Tablet Screen Mockups
  92. 2016-12-02Anthropoid 2016 1080p BluRay x264 DTS-JYK
  93. 2016-12-02Army of One 2016 1080p BluRay DTS x264-ETRG
  94. 2016-12-02FXPHD Intermediate RenderMan
  95. 2016-12-02Arrowhead 2016 BluRay 1080p DD5.1 x265-D3FiL3R
  96. 2016-12-02Ben Hur 2016 1080p BluRay x264 DTS-JYK
  97. 2016-12-02Ben-Hur 2016 BluRay 1080p DD5 1 HEVC-D3FiL3R
  98. 2016-12-02Udemy Ionic 1 From Web to Mobile
  99. 2016-12-02Cristiano Ronaldo World at His Feet 2014 1080p BluRay x264-GUACAMOLE

More eBooks ...

47968 pages, 4796777 eBooks in total, list all pages->

Search free ebooks in ebookee.com!
Back to Top